createdAt,value
2018-04-27T00:01:05.642Z,6.87
2018-04-27T00:06:56.335Z,6.96
2018-04-27T00:12:47.023Z,6.6
2018-04-27T00:18:37.740Z,6.56
2018-04-27T00:24:28.439Z,6.34
2018-04-27T00:30:19.075Z,6.89
2018-04-27T00:36:09.760Z,7.39
2018-04-27T00:42:00.431Z,7.88
2018-04-27T00:47:51.153Z,6.41
2018-04-27T00:53:41.863Z,6.65
2018-04-27T00:59:32.546Z,8.73
2018-04-27T01:05:23.248Z,6.38
2018-04-27T01:11:13.956Z,6.64
2018-04-27T01:17:04.592Z,5.95
2018-04-27T01:22:55.347Z,5.79
2018-04-27T01:28:45.957Z,6.04
2018-04-27T01:34:36.748Z,6.2
2018-04-27T01:40:27.331Z,5.14
2018-04-27T01:46:18.125Z,6
2018-04-27T01:52:08.695Z,5.23
2018-04-27T01:57:59.415Z,5.59
2018-04-27T02:03:50.052Z,5.16
2018-04-27T02:09:40.768Z,5.31
2018-04-27T02:15:31.463Z,4.76
2018-04-27T02:21:22.162Z,6.35
2018-04-27T02:27:12.816Z,5.82
2018-04-27T02:33:03.477Z,5.19
2018-04-27T02:38:54.182Z,5.5
2018-04-27T02:44:44.869Z,4.97
2018-04-27T02:50:35.519Z,4.9
2018-04-27T02:56:26.275Z,5.43
2018-04-27T03:02:16.939Z,5.38
2018-04-27T03:08:07.585Z,5.93
2018-04-27T03:13:58.266Z,5.68
2018-04-27T03:19:48.991Z,6.21
2018-04-27T03:25:39.610Z,5.38
2018-04-27T03:31:30.332Z,5.5
2018-04-27T03:37:20.968Z,5.29
2018-04-27T03:43:11.700Z,9.87
2018-04-27T03:49:02.366Z,5.89
2018-04-27T03:54:53.083Z,5.58
2018-04-27T04:00:43.680Z,5.59
2018-04-27T04:06:34.402Z,9.37
2018-04-27T04:12:25.076Z,6.71
2018-04-27T04:18:15.735Z,7.24
2018-04-27T04:24:06.387Z,7.21
2018-04-27T04:29:57.092Z,6.29
2018-04-27T04:35:47.743Z,6.45
2018-04-27T04:41:38.468Z,7.81
2018-04-27T04:47:29.121Z,9.74
2018-04-27T04:53:19.779Z,14.63
2018-04-27T04:59:10.446Z,14.18
2018-04-27T05:05:01.140Z,13.45
2018-04-27T05:10:51.860Z,23.01
2018-04-27T05:16:42.526Z,25.11
2018-04-27T05:22:33.179Z,18.39
2018-04-27T05:28:23.880Z,13.14
2018-04-27T05:34:14.513Z,10.44
2018-04-27T05:40:05.213Z,9.57
2018-04-27T05:45:55.885Z,7.05
2018-04-27T05:51:46.538Z,7.04
2018-04-27T05:57:37.258Z,6.06
2018-04-27T06:03:27.869Z,8.06
2018-04-27T06:09:18.542Z,8.2
2018-04-27T06:15:09.255Z,10.54
2018-04-27T06:20:59.909Z,12.89
2018-04-27T06:26:50.643Z,10.71
2018-04-27T06:32:41.276Z,12.69
2018-04-27T06:38:31.928Z,15.81
2018-04-27T06:44:22.624Z,10.63
2018-04-27T06:50:13.376Z,13.57
2018-04-27T06:56:04.033Z,14.28
2018-04-27T07:01:54.686Z,14.82
2018-04-27T07:07:45.402Z,17.14
2018-04-27T07:13:36.046Z,16.53
2018-04-27T07:19:26.777Z,15.43
2018-04-27T07:25:17.422Z,14.75
2018-04-27T07:31:08.202Z,16.5
2018-04-27T07:36:58.814Z,14.48
2018-04-27T07:42:49.493Z,13.98
2018-04-27T07:48:40.180Z,12.36
2018-04-27T07:54:30.917Z,11.88
2018-04-27T08:00:21.595Z,13.01
2018-04-27T08:06:12.302Z,12.48
2018-04-27T08:12:02.963Z,10.82
2018-04-27T08:17:53.705Z,10.76
2018-04-27T08:23:44.384Z,11.57
2018-04-27T08:29:35.107Z,10.02
2018-04-27T08:35:25.852Z,8.99
2018-04-27T08:41:16.518Z,8.71
2018-04-27T08:47:07.276Z,9.79
2018-04-27T08:52:57.960Z,8.27
2018-04-27T08:58:48.695Z,8.43
2018-04-27T09:04:39.416Z,7.78
2018-04-27T09:10:30.197Z,6.57
2018-04-27T09:16:20.892Z,8.01
2018-04-27T09:22:11.612Z,7.12
2018-04-27T09:28:02.314Z,7.56
2018-04-27T09:33:53.059Z,7.7
2018-04-27T09:39:43.827Z,8.16
2018-04-27T09:45:34.546Z,8.06
2018-04-27T09:51:25.251Z,8.38
2018-04-27T09:57:15.965Z,6.68
2018-04-27T10:03:06.780Z,6.34
2018-04-27T10:08:57.458Z,5.88
2018-04-27T10:14:48.270Z,6.85
2018-04-27T10:20:39.042Z,5.53
2018-04-27T10:26:29.707Z,5.82
2018-04-27T10:32:20.491Z,7.05
2018-04-27T10:38:11.217Z,5.56
2018-04-27T10:44:02.012Z,5.01
2018-04-27T10:49:52.762Z,4.57
2018-04-27T10:55:43.489Z,4.46
2018-04-27T11:01:34.291Z,5.08
2018-04-27T11:07:25.020Z,4.43
2018-04-27T11:13:15.844Z,3.71
2018-04-27T11:19:06.614Z,3.63
2018-04-27T11:24:57.362Z,3.4
2018-04-27T11:30:48.173Z,3.36
2018-04-27T11:36:38.902Z,3.72
2018-04-27T11:42:29.663Z,3.99
2018-04-27T11:48:20.442Z,4.32
2018-04-27T11:54:11.243Z,4.34
2018-04-27T12:00:01.999Z,4.35
2018-04-27T12:05:52.746Z,3.29
2018-04-27T12:11:43.564Z,4.22
2018-04-27T12:17:34.398Z,4.08
2018-04-27T12:23:25.123Z,4.48
2018-04-27T12:29:15.922Z,3.71
2018-04-27T12:35:06.689Z,4.5
2018-04-27T12:40:57.476Z,3.86
2018-04-27T12:46:48.242Z,5.02
2018-04-27T12:52:39.117Z,3.95
2018-04-27T12:58:29.812Z,4.49
2018-04-27T13:04:20.676Z,4.67
2018-04-27T13:10:11.443Z,4.37
2018-04-27T13:16:02.205Z,4.04
2018-04-27T13:21:52.975Z,4.35
2018-04-27T13:27:43.760Z,4.14
2018-04-27T13:33:34.604Z,4.57
2018-04-27T13:39:25.333Z,4.68
2018-04-27T13:45:16.162Z,4.62
2018-04-27T13:51:06.971Z,5.3
2018-04-27T13:56:57.700Z,4.63
2018-04-27T14:02:48.522Z,4.45
2018-04-27T14:08:39.247Z,4.39
2018-04-27T14:14:30.454Z,4.74
2018-04-27T14:20:20.839Z,4.93
2018-04-27T14:26:11.724Z,5.07
2018-04-27T14:32:02.482Z,4.65
2018-04-27T14:37:53.212Z,4.86
2018-04-27T14:43:44.016Z,5.6
2018-04-27T14:49:34.801Z,5.22
2018-04-27T14:55:25.600Z,5.84
2018-04-27T15:01:16.385Z,4.65
2018-04-27T15:07:07.161Z,4.96
2018-04-27T15:12:57.982Z,5.56
2018-04-27T15:18:48.732Z,5.5
2018-04-27T15:24:39.553Z,5.4
2018-04-27T15:30:30.315Z,5.93
2018-04-27T15:36:21.106Z,5.58
2018-04-27T15:42:11.873Z,5.64
2018-04-27T15:48:02.649Z,5.7
2018-04-27T15:53:53.456Z,5.45
2018-04-27T15:59:44.247Z,5.91
2018-04-27T16:05:35.020Z,5.87
2018-04-27T16:11:25.762Z,5.77
2018-04-27T16:17:16.559Z,6.2
2018-04-27T16:23:07.359Z,7.58
2018-04-27T16:28:58.126Z,5.46
2018-04-27T16:34:48.899Z,5.45
2018-04-27T16:40:39.678Z,6.57
2018-04-27T16:46:30.414Z,6.58
2018-04-27T16:52:21.212Z,6.2
2018-04-27T16:58:11.997Z,6.19
2018-04-27T17:04:02.759Z,6.01
2018-04-27T17:09:53.496Z,6.12
2018-04-27T17:15:44.311Z,6.14
2018-04-27T17:21:35.069Z,5.78
2018-04-27T17:27:25.850Z,6.94
2018-04-27T17:33:16.599Z,6.89
2018-04-27T17:39:07.338Z,6.74
2018-04-27T17:44:58.140Z,6.15
2018-04-27T17:50:48.893Z,6.25
2018-04-27T17:56:39.588Z,6.38
2018-04-27T18:02:30.358Z,6.69
2018-04-27T18:08:21.141Z,8.09
2018-04-27T18:14:11.908Z,7.46
2018-04-27T18:20:02.668Z,6.82
2018-04-27T18:25:53.424Z,5.76
2018-04-27T18:31:44.174Z,6.54
2018-04-27T18:37:34.903Z,9.93
2018-04-27T18:43:25.635Z,6.82
2018-04-27T18:49:16.370Z,5.75
2018-04-27T18:55:07.129Z,8.9
2018-04-27T19:00:57.957Z,11.11
2018-04-27T19:06:48.608Z,7.62
2018-04-27T19:12:39.393Z,6.56
2018-04-27T19:18:30.134Z,6.75
2018-04-27T19:24:20.856Z,7.38
2018-04-27T19:30:11.595Z,7.79
2018-04-27T19:36:02.331Z,7.8
2018-04-27T19:41:53.077Z,6.68
2018-04-27T19:47:43.784Z,6.15
2018-04-27T19:53:34.525Z,6.62
2018-04-27T19:59:25.272Z,6.24
2018-04-27T20:05:16.015Z,6.75
2018-04-27T20:11:06.917Z,6.82
2018-04-27T20:16:57.493Z,6.34
2018-04-27T20:22:48.230Z,5.89
2018-04-27T20:28:38.957Z,5.8
2018-04-27T20:34:29.696Z,6.84
2018-04-27T20:40:20.410Z,5.59
2018-04-27T20:46:11.152Z,6.08
2018-04-27T20:52:01.902Z,7
2018-04-27T20:57:52.614Z,7.05
2018-04-27T21:03:43.351Z,7.49
2018-04-27T21:09:34.165Z,6.81
2018-04-27T21:15:24.762Z,6.02
2018-04-27T21:21:15.508Z,6.27
2018-04-27T21:27:06.209Z,6.29
2018-04-27T21:32:56.942Z,6.15
2018-04-27T21:38:47.741Z,6.77
2018-04-27T21:44:38.400Z,7.4
2018-04-27T21:50:29.096Z,6.88
2018-04-27T21:56:19.864Z,6.38
2018-04-27T22:02:10.544Z,6.97
2018-04-27T22:08:01.263Z,6.6
2018-04-27T22:13:52.031Z,7.36
2018-04-27T22:19:42.712Z,8.03
2018-04-27T22:25:33.496Z,6.84
2018-04-27T22:31:24.149Z,6.99
2018-04-27T22:37:14.854Z,6.72
2018-04-27T22:43:05.578Z,6.79
2018-04-27T22:48:56.307Z,7.37
2018-04-27T22:54:47.030Z,7.07
2018-04-27T23:00:37.727Z,7.74
2018-04-27T23:06:28.405Z,8.11
2018-04-27T23:12:19.187Z,6.86
2018-04-27T23:18:09.901Z,6.93
2018-04-27T23:24:00.588Z,6.76
2018-04-27T23:29:51.255Z,6.75
2018-04-27T23:35:41.939Z,7.19
2018-04-27T23:41:32.639Z,9.1
2018-04-27T23:47:23.385Z,7.43
2018-04-27T23:53:14.069Z,8
2018-04-27T23:59:04.753Z,7.55
